sensor_id;sensor_type;location;lat;lon;timestamp;P1;durP1;ratioP1;P2;durP2;ratioP2
3791;SDS011;1911;53.768;11.474;2022-10-15T00:02:19;10.07;;;7.40;;
3791;SDS011;1911;53.768;11.474;2022-10-15T00:04:44;13.47;;;7.10;;
3791;SDS011;1911;53.768;11.474;2022-10-15T00:07:13;14.50;;;8.97;;
3791;SDS011;1911;53.768;11.474;2022-10-15T00:09:38;12.60;;;7.90;;
3791;SDS011;1911;53.768;11.474;2022-10-15T00:12:04;12.93;;;7.13;;
3791;SDS011;1911;53.768;11.474;2022-10-15T00:14:30;12.00;;;8.83;;
3791;SDS011;1911;53.768;11.474;2022-10-15T00:16:56;11.80;;;8.30;;
3791;SDS011;1911;53.768;11.474;2022-10-15T00:19:21;11.17;;;8.20;;
3791;SDS011;1911;53.768;11.474;2022-10-15T00:21:47;11.10;;;8.10;;
3791;SDS011;1911;53.768;11.474;2022-10-15T00:24:12;10.17;;;7.00;;
3791;SDS011;1911;53.768;11.474;2022-10-15T00:26:38;13.73;;;8.53;;
3791;SDS011;1911;53.768;11.474;2022-10-15T00:29:04;12.37;;;9.57;;
3791;SDS011;1911;53.768;11.474;2022-10-15T00:31:30;12.17;;;7.80;;
3791;SDS011;1911;53.768;11.474;2022-10-15T00:33:58;10.93;;;7.77;;
3791;SDS011;1911;53.768;11.474;2022-10-15T00:36:26;12.87;;;8.90;;
3791;SDS011;1911;53.768;11.474;2022-10-15T00:38:54;9.63;;;6.97;;
3791;SDS011;1911;53.768;11.474;2022-10-15T00:41:21;11.00;;;8.17;;
3791;SDS011;1911;53.768;11.474;2022-10-15T00:43:56;10.93;;;8.23;;
3791;SDS011;1911;53.768;11.474;2022-10-15T00:46:41;12.60;;;8.70;;
3791;SDS011;1911;53.768;11.474;2022-10-15T00:49:13;11.87;;;7.73;;
3791;SDS011;1911;53.768;11.474;2022-10-15T00:51:51;11.27;;;7.83;;
3791;SDS011;1911;53.768;11.474;2022-10-15T00:54:21;11.20;;;8.30;;
3791;SDS011;1911;53.768;11.474;2022-10-15T00:56:49;13.87;;;8.73;;
3791;SDS011;1911;53.768;11.474;2022-10-15T00:59:15;12.67;;;8.93;;
3791;SDS011;1911;53.768;11.474;2022-10-15T01:01:49;12.80;;;8.30;;
3791;SDS011;1911;53.768;11.474;2022-10-15T01:04:21;14.77;;;8.60;;
3791;SDS011;1911;53.768;11.474;2022-10-15T01:06:48;10.17;;;7.97;;
3791;SDS011;1911;53.768;11.474;2022-10-15T01:09:13;14.17;;;8.13;;
3791;SDS011;1911;53.768;11.474;2022-10-15T01:14:14;12.20;;;8.60;;
3791;SDS011;1911;53.768;11.474;2022-10-15T01:16:52;12.80;;;8.57;;
3791;SDS011;1911;53.768;11.474;2022-10-15T01:19:47;13.43;;;8.30;;
3791;SDS011;1911;53.768;11.474;2022-10-15T01:22:35;13.83;;;9.30;;
3791;SDS011;1911;53.768;11.474;2022-10-15T01:28:05;12.98;;;8.25;;
3791;SDS011;1911;53.768;11.474;2022-10-15T01:30:40;10.40;;;8.27;;
3791;SDS011;1911;53.768;11.474;2022-10-15T01:41:17;12.50;;;8.80;;
3791;SDS011;1911;53.768;11.474;2022-10-15T01:43:55;10.73;;;7.93;;
3791;SDS011;1911;53.768;11.474;2022-10-15T01:46:39;12.00;;;9.47;;
3791;SDS011;1911;53.768;11.474;2022-10-15T01:49:15;14.97;;;8.83;;
3791;SDS011;1911;53.768;11.474;2022-10-15T01:51:45;14.20;;;9.23;;
3791;SDS011;1911;53.768;11.474;2022-10-15T01:54:14;11.17;;;8.33;;
3791;SDS011;1911;53.768;11.474;2022-10-15T01:56:43;13.00;;;8.40;;
3791;SDS011;1911;53.768;11.474;2022-10-15T01:59:14;10.50;;;7.87;;
3791;SDS011;1911;53.768;11.474;2022-10-15T02:01:46;12.53;;;9.00;;
3791;SDS011;1911;53.768;11.474;2022-10-15T02:04:23;16.02;;;9.10;;
3791;SDS011;1911;53.768;11.474;2022-10-15T02:06:57;14.40;;;8.70;;
3791;SDS011;1911;53.768;11.474;2022-10-15T02:12:25;13.53;;;9.03;;
3791;SDS011;1911;53.768;11.474;2022-10-15T02:17:39;13.63;;;8.13;;
3791;SDS011;1911;53.768;11.474;2022-10-15T02:20:22;17.55;;;9.25;;
3791;SDS011;1911;53.768;11.474;2022-10-15T02:22:54;13.07;;;8.83;;
3791;SDS011;1911;53.768;11.474;2022-10-15T02:25:27;15.15;;;10.80;;
3791;SDS011;1911;53.768;11.474;2022-10-15T02:27:54;12.90;;;8.70;;
3791;SDS011;1911;53.768;11.474;2022-10-15T02:30:22;15.33;;;9.57;;
3791;SDS011;1911;53.768;11.474;2022-10-15T02:32:52;14.30;;;9.33;;
3791;SDS011;1911;53.768;11.474;2022-10-15T02:35:22;12.73;;;9.43;;
3791;SDS011;1911;53.768;11.474;2022-10-15T02:37:49;19.43;;;11.03;;
3791;SDS011;1911;53.768;11.474;2022-10-15T02:40:19;13.17;;;9.27;;
3791;SDS011;1911;53.768;11.474;2022-10-15T02:42:48;14.47;;;10.10;;
3791;SDS011;1911;53.768;11.474;2022-10-15T02:45:15;13.03;;;9.20;;
3791;SDS011;1911;53.768;11.474;2022-10-15T02:47:41;15.63;;;9.47;;
3791;SDS011;1911;53.768;11.474;2022-10-15T02:50:06;13.57;;;8.90;;
3791;SDS011;1911;53.768;11.474;2022-10-15T02:52:32;12.80;;;9.30;;
3791;SDS011;1911;53.768;11.474;2022-10-15T02:54:58;12.67;;;9.67;;
3791;SDS011;1911;53.768;11.474;2022-10-15T02:57:23;13.50;;;9.17;;
3791;SDS011;1911;53.768;11.474;2022-10-15T02:59:49;13.60;;;8.80;;
3791;SDS011;1911;53.768;11.474;2022-10-15T03:02:15;14.03;;;8.80;;
3791;SDS011;1911;53.768;11.474;2022-10-15T03:04:40;12.80;;;8.37;;
3791;SDS011;1911;53.768;11.474;2022-10-15T03:07:06;16.30;;;8.63;;
3791;SDS011;1911;53.768;11.474;2022-10-15T03:09:32;15.30;;;9.10;;
3791;SDS011;1911;53.768;11.474;2022-10-15T03:11:58;14.00;;;9.23;;
3791;SDS011;1911;53.768;11.474;2022-10-15T03:14:23;21.87;;;8.57;;
3791;SDS011;1911;53.768;11.474;2022-10-15T03:16:49;14.17;;;9.00;;
3791;SDS011;1911;53.768;11.474;2022-10-15T03:19:14;13.60;;;7.90;;
3791;SDS011;1911;53.768;11.474;2022-10-15T03:21:40;11.87;;;8.00;;
3791;SDS011;1911;53.768;11.474;2022-10-15T03:24:06;13.10;;;8.90;;
3791;SDS011;1911;53.768;11.474;2022-10-15T03:26:31;12.10;;;8.23;;
3791;SDS011;1911;53.768;11.474;2022-10-15T03:28:57;11.60;;;8.20;;
3791;SDS011;1911;53.768;11.474;2022-10-15T03:31:23;10.90;;;7.50;;
3791;SDS011;1911;53.768;11.474;2022-10-15T03:33:49;12.17;;;8.60;;
3791;SDS011;1911;53.768;11.474;2022-10-15T03:36:14;16.23;;;9.27;;
3791;SDS011;1911;53.768;11.474;2022-10-15T03:38:40;15.93;;;9.27;;
3791;SDS011;1911;53.768;11.474;2022-10-15T03:41:05;13.83;;;8.70;;
3791;SDS011;1911;53.768;11.474;2022-10-15T03:43:31;12.20;;;8.40;;
3791;SDS011;1911;53.768;11.474;2022-10-15T03:46:00;13.50;;;9.10;;
3791;SDS011;1911;53.768;11.474;2022-10-15T03:48:26;15.37;;;9.20;;
3791;SDS011;1911;53.768;11.474;2022-10-15T03:50:52;15.33;;;9.67;;
3791;SDS011;1911;53.768;11.474;2022-10-15T03:53:17;14.90;;;9.60;;
3791;SDS011;1911;53.768;11.474;2022-10-15T03:55:43;13.50;;;8.90;;
3791;SDS011;1911;53.768;11.474;2022-10-15T03:58:09;12.47;;;9.33;;
3791;SDS011;1911;53.768;11.474;2022-10-15T04:00:34;15.57;;;9.00;;
3791;SDS011;1911;53.768;11.474;2022-10-15T04:03:00;14.57;;;10.20;;
3791;SDS011;1911;53.768;11.474;2022-10-15T04:05:26;16.93;;;10.13;;
3791;SDS011;1911;53.768;11.474;2022-10-15T04:07:52;13.98;;;9.20;;
3791;SDS011;1911;53.768;11.474;2022-10-15T04:10:17;17.73;;;8.77;;
3791;SDS011;1911;53.768;11.474;2022-10-15T04:12:43;13.63;;;10.40;;
3791;SDS011;1911;53.768;11.474;2022-10-15T04:15:09;15.07;;;9.80;;
3791;SDS011;1911;53.768;11.474;2022-10-15T04:17:34;15.57;;;10.53;;
3791;SDS011;1911;53.768;11.474;2022-10-15T04:20:00;15.20;;;10.30;;
3791;SDS011;1911;53.768;11.474;2022-10-15T04:22:26;16.50;;;10.40;;
3791;SDS011;1911;53.768;11.474;2022-10-15T04:24:51;13.17;;;9.30;;
3791;SDS011;1911;53.768;11.474;2022-10-15T04:27:17;15.57;;;10.00;;
3791;SDS011;1911;53.768;11.474;2022-10-15T04:29:42;16.47;;;10.03;;
3791;SDS011;1911;53.768;11.474;2022-10-15T04:32:10;15.17;;;9.80;;
3791;SDS011;1911;53.768;11.474;2022-10-15T04:34:38;15.23;;;9.87;;
3791;SDS011;1911;53.768;11.474;2022-10-15T04:37:03;14.80;;;9.73;;
3791;SDS011;1911;53.768;11.474;2022-10-15T04:39:29;13.63;;;10.27;;
3791;SDS011;1911;53.768;11.474;2022-10-15T04:41:55;14.90;;;10.40;;
3791;SDS011;1911;53.768;11.474;2022-10-15T04:44:20;20.30;;;10.93;;
3791;SDS011;1911;53.768;11.474;2022-10-15T04:46:46;38.53;;;11.80;;
3791;SDS011;1911;53.768;11.474;2022-10-15T04:49:12;17.93;;;12.23;;
3791;SDS011;1911;53.768;11.474;2022-10-15T04:51:37;18.73;;;10.73;;
3791;SDS011;1911;53.768;11.474;2022-10-15T04:54:03;18.70;;;12.40;;
3791;SDS011;1911;53.768;11.474;2022-10-15T04:56:29;17.00;;;11.40;;
3791;SDS011;1911;53.768;11.474;2022-10-15T04:58:54;16.10;;;11.70;;
3791;SDS011;1911;53.768;11.474;2022-10-15T05:01:20;14.77;;;10.40;;
3791;SDS011;1911;53.768;11.474;2022-10-15T05:03:46;17.17;;;11.80;;
3791;SDS011;1911;53.768;11.474;2022-10-15T05:06:17;16.43;;;10.77;;
3791;SDS011;1911;53.768;11.474;2022-10-15T05:08:44;17.53;;;10.00;;
3791;SDS011;1911;53.768;11.474;2022-10-15T05:11:14;13.67;;;10.17;;
3791;SDS011;1911;53.768;11.474;2022-10-15T05:13:42;14.63;;;10.30;;
3791;SDS011;1911;53.768;11.474;2022-10-15T05:18:37;14.60;;;10.83;;
3791;SDS011;1911;53.768;11.474;2022-10-15T05:21:03;16.37;;;11.40;;
3791;SDS011;1911;53.768;11.474;2022-10-15T05:23:29;16.97;;;11.40;;
3791;SDS011;1911;53.768;11.474;2022-10-15T05:25:57;16.90;;;11.70;;
3791;SDS011;1911;53.768;11.474;2022-10-15T05:28:24;19.30;;;12.20;;
3791;SDS011;1911;53.768;11.474;2022-10-15T05:30:50;19.30;;;11.83;;
3791;SDS011;1911;53.768;11.474;2022-10-15T05:33:15;21.70;;;11.93;;
3791;SDS011;1911;53.768;11.474;2022-10-15T05:35:41;17.47;;;12.17;;
3791;SDS011;1911;53.768;11.474;2022-10-15T05:38:07;24.07;;;13.00;;
3791;SDS011;1911;53.768;11.474;2022-10-15T05:40:32;23.60;;;14.37;;
3791;SDS011;1911;53.768;11.474;2022-10-15T05:42:58;26.50;;;14.23;;
3791;SDS011;1911;53.768;11.474;2022-10-15T05:45:23;24.23;;;14.10;;
3791;SDS011;1911;53.768;11.474;2022-10-15T05:47:52;24.87;;;15.30;;
3791;SDS011;1911;53.768;11.474;2022-10-15T05:50:19;28.30;;;16.63;;
3791;SDS011;1911;53.768;11.474;2022-10-15T05:52:44;24.20;;;15.07;;
3791;SDS011;1911;53.768;11.474;2022-10-15T05:55:10;25.83;;;16.67;;
3791;SDS011;1911;53.768;11.474;2022-10-15T05:57:36;28.40;;;15.37;;
3791;SDS011;1911;53.768;11.474;2022-10-15T06:00:03;26.70;;;16.30;;
3791;SDS011;1911;53.768;11.474;2022-10-15T06:02:29;24.90;;;15.77;;
3791;SDS011;1911;53.768;11.474;2022-10-15T06:04:55;31.00;;;17.00;;
3791;SDS011;1911;53.768;11.474;2022-10-15T06:07:21;24.90;;;14.87;;
3791;SDS011;1911;53.768;11.474;2022-10-15T06:09:46;25.63;;;16.60;;
3791;SDS011;1911;53.768;11.474;2022-10-15T06:12:12;26.73;;;15.70;;
3791;SDS011;1911;53.768;11.474;2022-10-15T06:14:38;27.70;;;15.33;;
3791;SDS011;1911;53.768;11.474;2022-10-15T06:17:03;24.17;;;16.60;;
3791;SDS011;1911;53.768;11.474;2022-10-15T06:19:29;29.10;;;16.90;;
3791;SDS011;1911;53.768;11.474;2022-10-15T06:21:54;28.30;;;17.17;;
3791;SDS011;1911;53.768;11.474;2022-10-15T06:24:20;29.50;;;16.40;;
3791;SDS011;1911;53.768;11.474;2022-10-15T06:26:45;28.03;;;16.67;;
3791;SDS011;1911;53.768;11.474;2022-10-15T06:29:11;29.37;;;17.67;;
3791;SDS011;1911;53.768;11.474;2022-10-15T06:31:37;27.57;;;17.27;;
3791;SDS011;1911;53.768;11.474;2022-10-15T06:34:02;30.60;;;16.20;;
3791;SDS011;1911;53.768;11.474;2022-10-15T06:36:28;29.93;;;18.60;;
3791;SDS011;1911;53.768;11.474;2022-10-15T06:38:53;33.87;;;19.17;;
3791;SDS011;1911;53.768;11.474;2022-10-15T06:41:19;30.43;;;17.30;;
3791;SDS011;1911;53.768;11.474;2022-10-15T06:43:47;32.27;;;18.03;;
3791;SDS011;1911;53.768;11.474;2022-10-15T06:46:13;32.87;;;18.17;;
3791;SDS011;1911;53.768;11.474;2022-10-15T06:48:39;27.77;;;16.53;;
3791;SDS011;1911;53.768;11.474;2022-10-15T06:51:05;28.13;;;16.70;;
3791;SDS011;1911;53.768;11.474;2022-10-15T06:53:31;28.80;;;17.17;;
3791;SDS011;1911;53.768;11.474;2022-10-15T06:56:00;29.23;;;17.87;;
3791;SDS011;1911;53.768;11.474;2022-10-15T06:58:27;30.90;;;17.50;;
3791;SDS011;1911;53.768;11.474;2022-10-15T07:00:58;28.45;;;17.08;;
3791;SDS011;1911;53.768;11.474;2022-10-15T07:03:24;29.10;;;16.17;;
3791;SDS011;1911;53.768;11.474;2022-10-15T07:05:50;26.60;;;15.93;;
3791;SDS011;1911;53.768;11.474;2022-10-15T07:08:16;25.37;;;15.80;;
3791;SDS011;1911;53.768;11.474;2022-10-15T07:10:41;30.97;;;17.87;;
3791;SDS011;1911;53.768;11.474;2022-10-15T07:13:07;27.77;;;16.77;;
3791;SDS011;1911;53.768;11.474;2022-10-15T07:15:32;26.27;;;15.10;;
3791;SDS011;1911;53.768;11.474;2022-10-15T07:17:58;25.93;;;16.30;;
3791;SDS011;1911;53.768;11.474;2022-10-15T07:20:29;24.85;;;15.52;;
3791;SDS011;1911;53.768;11.474;2022-10-15T07:22:59;24.33;;;15.30;;
3791;SDS011;1911;53.768;11.474;2022-10-15T07:25:26;24.37;;;15.60;;
3791;SDS011;1911;53.768;11.474;2022-10-15T07:27:52;24.60;;;14.30;;
3791;SDS011;1911;53.768;11.474;2022-10-15T07:30:19;27.00;;;15.83;;
3791;SDS011;1911;53.768;11.474;2022-10-15T07:32:46;24.53;;;14.87;;
3791;SDS011;1911;53.768;11.474;2022-10-15T07:35:12;26.67;;;14.93;;
3791;SDS011;1911;53.768;11.474;2022-10-15T07:37:38;23.60;;;14.00;;
3791;SDS011;1911;53.768;11.474;2022-10-15T07:40:04;26.30;;;16.13;;
3791;SDS011;1911;53.768;11.474;2022-10-15T07:42:30;23.13;;;13.30;;
3791;SDS011;1911;53.768;11.474;2022-10-15T07:44:55;26.70;;;15.27;;
3791;SDS011;1911;53.768;11.474;2022-10-15T07:47:21;19.93;;;13.20;;
3791;SDS011;1911;53.768;11.474;2022-10-15T07:49:47;23.03;;;13.13;;
3791;SDS011;1911;53.768;11.474;2022-10-15T07:52:12;18.10;;;11.90;;
3791;SDS011;1911;53.768;11.474;2022-10-15T07:54:38;16.70;;;11.43;;
3791;SDS011;1911;53.768;11.474;2022-10-15T07:57:04;15.27;;;11.00;;
3791;SDS011;1911;53.768;11.474;2022-10-15T07:59:31;18.13;;;11.23;;
3791;SDS011;1911;53.768;11.474;2022-10-15T08:01:57;16.30;;;11.30;;
3791;SDS011;1911;53.768;11.474;2022-10-15T08:04:23;16.73;;;11.63;;
3791;SDS011;1911;53.768;11.474;2022-10-15T08:06:48;20.53;;;11.77;;
3791;SDS011;1911;53.768;11.474;2022-10-15T08:09:14;15.33;;;10.63;;
3791;SDS011;1911;53.768;11.474;2022-10-15T08:11:40;15.60;;;11.18;;
3791;SDS011;1911;53.768;11.474;2022-10-15T08:14:06;15.70;;;10.07;;
3791;SDS011;1911;53.768;11.474;2022-10-15T08:16:31;15.33;;;10.20;;
3791;SDS011;1911;53.768;11.474;2022-10-15T08:18:57;15.77;;;10.87;;
3791;SDS011;1911;53.768;11.474;2022-10-15T08:21:24;17.10;;;10.70;;
3791;SDS011;1911;53.768;11.474;2022-10-15T08:23:49;13.10;;;9.30;;
3791;SDS011;1911;53.768;11.474;2022-10-15T08:26:16;15.87;;;8.70;;
3791;SDS011;1911;53.768;11.474;2022-10-15T08:28:41;12.53;;;9.30;;
3791;SDS011;1911;53.768;11.474;2022-10-15T08:31:07;11.97;;;9.03;;
3791;SDS011;1911;53.768;11.474;2022-10-15T08:33:33;11.90;;;8.90;;
3791;SDS011;1911;53.768;11.474;2022-10-15T08:36:00;12.70;;;9.47;;
3791;SDS011;1911;53.768;11.474;2022-10-15T08:38:29;12.37;;;9.47;;
3791;SDS011;1911;53.768;11.474;2022-10-15T08:40:55;11.07;;;8.77;;
3791;SDS011;1911;53.768;11.474;2022-10-15T08:43:25;15.13;;;9.73;;
3791;SDS011;1911;53.768;11.474;2022-10-15T08:45:59;15.13;;;9.10;;
3791;SDS011;1911;53.768;11.474;2022-10-15T08:48:39;13.67;;;8.90;;
3791;SDS011;1911;53.768;11.474;2022-10-15T08:51:11;15.13;;;9.70;;
3791;SDS011;1911;53.768;11.474;2022-10-15T08:53:52;13.60;;;9.57;;
3791;SDS011;1911;53.768;11.474;2022-10-15T09:01:31;15.23;;;9.77;;
3791;SDS011;1911;53.768;11.474;2022-10-15T09:04:18;20.17;;;11.90;;
3791;SDS011;1911;53.768;11.474;2022-10-15T09:06:57;17.13;;;10.30;;
3791;SDS011;1911;53.768;11.474;2022-10-15T09:14:53;15.90;;;9.63;;
3791;SDS011;1911;53.768;11.474;2022-10-15T09:17:23;18.37;;;10.23;;
3791;SDS011;1911;53.768;11.474;2022-10-15T09:19:52;15.63;;;9.30;;
3791;SDS011;1911;53.768;11.474;2022-10-15T09:22:22;16.75;;;9.80;;
3791;SDS011;1911;53.768;11.474;2022-10-15T09:24:53;19.43;;;11.80;;
3791;SDS011;1911;53.768;11.474;2022-10-15T09:35:42;17.30;;;10.27;;
3791;SDS011;1911;53.768;11.474;2022-10-15T09:43:58;18.40;;;10.03;;
3791;SDS011;1911;53.768;11.474;2022-10-15T09:46:25;13.70;;;8.30;;
3791;SDS011;1911;53.768;11.474;2022-10-15T09:48:56;11.97;;;7.80;;
3791;SDS011;1911;53.768;11.474;2022-10-15T09:52:07;12.20;;;6.90;;
3791;SDS011;1911;53.768;11.474;2022-10-15T09:57:19;13.40;;;7.13;;
3791;SDS011;1911;53.768;11.474;2022-10-15T09:59:54;12.93;;;8.15;;
3791;SDS011;1911;53.768;11.474;2022-10-15T10:02:22;15.23;;;8.50;;
3791;SDS011;1911;53.768;11.474;2022-10-15T10:04:49;13.27;;;9.30;;
3791;SDS011;1911;53.768;11.474;2022-10-15T10:09:53;12.10;;;7.43;;
3791;SDS011;1911;53.768;11.474;2022-10-15T10:12:25;14.90;;;8.48;;
3791;SDS011;1911;53.768;11.474;2022-10-15T10:17:27;12.48;;;8.20;;
3791;SDS011;1911;53.768;11.474;2022-10-15T10:25:29;9.80;;;7.07;;
3791;SDS011;1911;53.768;11.474;2022-10-15T10:28:04;10.70;;;7.27;;
3791;SDS011;1911;53.768;11.474;2022-10-15T10:33:33;12.27;;;8.88;;
3791;SDS011;1911;53.768;11.474;2022-10-15T10:36:17;15.43;;;9.03;;
3791;SDS011;1911;53.768;11.474;2022-10-15T10:38:55;14.10;;;9.10;;
3791;SDS011;1911;53.768;11.474;2022-10-15T10:44:41;14.63;;;9.27;;
3791;SDS011;1911;53.768;11.474;2022-10-15T10:49:57;13.80;;;7.80;;
3791;SDS011;1911;53.768;11.474;2022-10-15T10:55:00;12.30;;;7.80;;
3791;SDS011;1911;53.768;11.474;2022-10-15T10:57:40;16.77;;;6.90;;
3791;SDS011;1911;53.768;11.474;2022-10-15T11:00:14;13.30;;;8.23;;
3791;SDS011;1911;53.768;11.474;2022-10-15T11:02:44;15.70;;;7.77;;
3791;SDS011;1911;53.768;11.474;2022-10-15T11:05:12;22.10;;;8.80;;
3791;SDS011;1911;53.768;11.474;2022-10-15T11:10:52;12.97;;;7.50;;
3791;SDS011;1911;53.768;11.474;2022-10-15T11:16:14;12.07;;;8.53;;
3791;SDS011;1911;53.768;11.474;2022-10-15T11:19:33;11.90;;;8.47;;
3791;SDS011;1911;53.768;11.474;2022-10-15T11:33:08;12.57;;;9.50;;
3791;SDS011;1911;53.768;11.474;2022-10-15T11:41:35;16.70;;;10.37;;
3791;SDS011;1911;53.768;11.474;2022-10-15T11:50:12;13.50;;;8.87;;
3791;SDS011;1911;53.768;11.474;2022-10-15T11:55:21;9.50;;;7.40;;
3791;SDS011;1911;53.768;11.474;2022-10-15T11:57:56;9.57;;;7.83;;
3791;SDS011;1911;53.768;11.474;2022-10-15T12:02:55;17.00;;;7.97;;
3791;SDS011;1911;53.768;11.474;2022-10-15T12:05:38;10.37;;;7.90;;
3791;SDS011;1911;53.768;11.474;2022-10-15T12:08:18;11.53;;;8.67;;
3791;SDS011;1911;53.768;11.474;2022-10-15T12:18:39;8.20;;;7.03;;
3791;SDS011;1911;53.768;11.474;2022-10-15T12:24:02;9.70;;;6.97;;
3791;SDS011;1911;53.768;11.474;2022-10-15T12:26:31;12.20;;;8.03;;
3791;SDS011;1911;53.768;11.474;2022-10-15T12:28:59;10.50;;;7.90;;
3791;SDS011;1911;53.768;11.474;2022-10-15T12:32:01;10.73;;;7.60;;
3791;SDS011;1911;53.768;11.474;2022-10-15T12:34:28;9.53;;;7.53;;
3791;SDS011;1911;53.768;11.474;2022-10-15T12:37:00;11.20;;;6.93;;
3791;SDS011;1911;53.768;11.474;2022-10-15T12:39:43;9.67;;;7.33;;
3791;SDS011;1911;53.768;11.474;2022-10-15T12:45:06;8.70;;;6.43;;
3791;SDS011;1911;53.768;11.474;2022-10-15T12:50:28;11.40;;;6.60;;
3791;SDS011;1911;53.768;11.474;2022-10-15T12:55:31;6.70;;;4.90;;
3791;SDS011;1911;53.768;11.474;2022-10-15T13:00:56;9.85;;;5.90;;
3791;SDS011;1911;53.768;11.474;2022-10-15T13:03:29;5.70;;;4.43;;
3791;SDS011;1911;53.768;11.474;2022-10-15T13:06:20;9.53;;;4.93;;
3791;SDS011;1911;53.768;11.474;2022-10-15T13:09:05;8.13;;;5.27;;
3791;SDS011;1911;53.768;11.474;2022-10-15T13:11:40;8.90;;;5.83;;
3791;SDS011;1911;53.768;11.474;2022-10-15T13:14:58;8.13;;;5.40;;
3791;SDS011;1911;53.768;11.474;2022-10-15T13:17:17;10.90;;;5.57;;
3791;SDS011;1911;53.768;11.474;2022-10-15T13:19:57;12.70;;;5.10;;
3791;SDS011;1911;53.768;11.474;2022-10-15T13:22:32;6.70;;;5.57;;
3791;SDS011;1911;53.768;11.474;2022-10-15T13:25:00;9.37;;;5.43;;
3791;SDS011;1911;53.768;11.474;2022-10-15T13:30:05;10.55;;;6.70;;
3791;SDS011;1911;53.768;11.474;2022-10-15T13:32:38;7.53;;;6.13;;
3791;SDS011;1911;53.768;11.474;2022-10-15T13:35:26;9.77;;;7.10;;
3791;SDS011;1911;53.768;11.474;2022-10-15T13:37:55;8.50;;;6.90;;
3791;SDS011;1911;53.768;11.474;2022-10-15T13:40:23;11.80;;;7.67;;
3791;SDS011;1911;53.768;11.474;2022-10-15T13:43:01;16.70;;;7.00;;
3791;SDS011;1911;53.768;11.474;2022-10-15T13:45:28;12.67;;;7.40;;
3791;SDS011;1911;53.768;11.474;2022-10-15T13:47:54;11.90;;;6.97;;
3791;SDS011;1911;53.768;11.474;2022-10-15T13:50:24;13.98;;;7.35;;
3791;SDS011;1911;53.768;11.474;2022-10-15T13:55:43;15.27;;;8.83;;
3791;SDS011;1911;53.768;11.474;2022-10-15T13:58:27;11.37;;;8.40;;
3791;SDS011;1911;53.768;11.474;2022-10-15T14:03:33;14.87;;;7.77;;
3791;SDS011;1911;53.768;11.474;2022-10-15T14:06:14;12.80;;;7.93;;
3791;SDS011;1911;53.768;11.474;2022-10-15T14:08:43;10.53;;;6.73;;
3791;SDS011;1911;53.768;11.474;2022-10-15T14:11:10;13.13;;;7.00;;
3791;SDS011;1911;53.768;11.474;2022-10-15T14:13:50;9.60;;;6.40;;
3791;SDS011;1911;53.768;11.474;2022-10-15T14:16:26;8.20;;;6.50;;
3791;SDS011;1911;53.768;11.474;2022-10-15T14:18:53;10.20;;;5.40;;
3791;SDS011;1911;53.768;11.474;2022-10-15T14:21:22;10.10;;;5.80;;
3791;SDS011;1911;53.768;11.474;2022-10-15T14:24:00;9.40;;;5.37;;
3791;SDS011;1911;53.768;11.474;2022-10-15T14:26:31;15.67;;;5.70;;
3791;SDS011;1911;53.768;11.474;2022-10-15T14:28:59;7.97;;;4.87;;
3791;SDS011;1911;53.768;11.474;2022-10-15T14:31:30;7.60;;;5.18;;
3791;SDS011;1911;53.768;11.474;2022-10-15T14:34:00;8.50;;;6.13;;
3791;SDS011;1911;53.768;11.474;2022-10-15T14:36:27;9.07;;;6.90;;
3791;SDS011;1911;53.768;11.474;2022-10-15T14:38:56;8.10;;;5.90;;
3791;SDS011;1911;53.768;11.474;2022-10-15T14:42:00;8.73;;;5.53;;
3791;SDS011;1911;53.768;11.474;2022-10-15T14:44:40;7.23;;;5.30;;
3791;SDS011;1911;53.768;11.474;2022-10-15T14:49:49;7.30;;;5.27;;
3791;SDS011;1911;53.768;11.474;2022-10-15T14:52:17;6.70;;;4.83;;
3791;SDS011;1911;53.768;11.474;2022-10-15T14:54:46;7.00;;;4.47;;
3791;SDS011;1911;53.768;11.474;2022-10-15T14:57:52;8.20;;;5.37;;
3791;SDS011;1911;53.768;11.474;2022-10-15T15:03:19;11.00;;;5.82;;
3791;SDS011;1911;53.768;11.474;2022-10-15T15:05:51;9.27;;;5.55;;
3791;SDS011;1911;53.768;11.474;2022-10-15T15:08:18;9.10;;;5.40;;
3791;SDS011;1911;53.768;11.474;2022-10-15T15:10:44;8.87;;;5.60;;
3791;SDS011;1911;53.768;11.474;2022-10-15T15:13:12;6.53;;;5.30;;
3791;SDS011;1911;53.768;11.474;2022-10-15T15:15:45;7.40;;;6.07;;
3791;SDS011;1911;53.768;11.474;2022-10-15T15:18:11;8.40;;;5.53;;
3791;SDS011;1911;53.768;11.474;2022-10-15T15:20:37;9.43;;;5.97;;
3791;SDS011;1911;53.768;11.474;2022-10-15T15:23:05;11.07;;;7.30;;
3791;SDS011;1911;53.768;11.474;2022-10-15T15:25:33;8.53;;;6.37;;
3791;SDS011;1911;53.768;11.474;2022-10-15T15:28:01;9.83;;;6.50;;
3791;SDS011;1911;53.768;11.474;2022-10-15T15:30:28;11.23;;;8.90;;
3791;SDS011;1911;53.768;11.474;2022-10-15T15:32:56;12.70;;;8.90;;
3791;SDS011;1911;53.768;11.474;2022-10-15T15:35:23;10.70;;;8.57;;
3791;SDS011;1911;53.768;11.474;2022-10-15T15:37:55;13.30;;;10.10;;
3791;SDS011;1911;53.768;11.474;2022-10-15T15:40:21;17.00;;;10.97;;
3791;SDS011;1911;53.768;11.474;2022-10-15T15:42:46;17.80;;;11.40;;
3791;SDS011;1911;53.768;11.474;2022-10-15T15:45:18;16.05;;;11.10;;
3791;SDS011;1911;53.768;11.474;2022-10-15T15:47:46;17.50;;;11.90;;
3791;SDS011;1911;53.768;11.474;2022-10-15T15:50:12;20.00;;;12.97;;
3791;SDS011;1911;53.768;11.474;2022-10-15T15:52:38;20.67;;;12.43;;
3791;SDS011;1911;53.768;11.474;2022-10-15T15:55:04;22.20;;;12.63;;
3791;SDS011;1911;53.768;11.474;2022-10-15T15:57:30;14.50;;;11.47;;
3791;SDS011;1911;53.768;11.474;2022-10-15T15:59:56;23.10;;;13.50;;
3791;SDS011;1911;53.768;11.474;2022-10-15T16:02:21;20.63;;;13.53;;
3791;SDS011;1911;53.768;11.474;2022-10-15T16:04:47;22.43;;;12.90;;
3791;SDS011;1911;53.768;11.474;2022-10-15T16:07:13;17.83;;;13.23;;
3791;SDS011;1911;53.768;11.474;2022-10-15T16:09:38;21.30;;;14.93;;
3791;SDS011;1911;53.768;11.474;2022-10-15T16:12:04;22.90;;;15.87;;
3791;SDS011;1911;53.768;11.474;2022-10-15T16:14:29;25.60;;;16.60;;
3791;SDS011;1911;53.768;11.474;2022-10-15T16:16:56;26.20;;;15.15;;
3791;SDS011;1911;53.768;11.474;2022-10-15T16:19:22;24.03;;;14.87;;
3791;SDS011;1911;53.768;11.474;2022-10-15T16:21:48;22.47;;;16.00;;
3791;SDS011;1911;53.768;11.474;2022-10-15T16:24:13;22.17;;;15.07;;
3791;SDS011;1911;53.768;11.474;2022-10-15T16:26:39;25.20;;;16.20;;
3791;SDS011;1911;53.768;11.474;2022-10-15T16:29:05;22.93;;;15.50;;
3791;SDS011;1911;53.768;11.474;2022-10-15T16:31:30;24.43;;;17.63;;
3791;SDS011;1911;53.768;11.474;2022-10-15T16:34:00;23.33;;;18.47;;
3791;SDS011;1911;53.768;11.474;2022-10-15T16:36:30;23.15;;;15.27;;
3791;SDS011;1911;53.768;11.474;2022-10-15T16:38:56;21.10;;;14.67;;
3791;SDS011;1911;53.768;11.474;2022-10-15T16:41:21;17.63;;;12.13;;
3791;SDS011;1911;53.768;11.474;2022-10-15T16:43:47;18.97;;;13.90;;
3791;SDS011;1911;53.768;11.474;2022-10-15T16:46:14;23.53;;;15.50;;
3791;SDS011;1911;53.768;11.474;2022-10-15T16:48:42;26.60;;;17.60;;
3791;SDS011;1911;53.768;11.474;2022-10-15T16:51:09;23.70;;;15.50;;
3791;SDS011;1911;53.768;11.474;2022-10-15T16:53:47;22.23;;;15.60;;
3791;SDS011;1911;53.768;11.474;2022-10-15T17:09:51;28.20;;;17.47;;
3791;SDS011;1911;53.768;11.474;2022-10-15T17:19:26;28.87;;;20.20;;
3791;SDS011;1911;53.768;11.474;2022-10-15T17:22:32;31.87;;;21.80;;
3791;SDS011;1911;53.768;11.474;2022-10-15T17:25:29;38.27;;;22.77;;
3791;SDS011;1911;53.768;11.474;2022-10-15T17:31:53;35.33;;;23.27;;
3791;SDS011;1911;53.768;11.474;2022-10-15T17:35:02;36.17;;;23.63;;
3791;SDS011;1911;53.768;11.474;2022-10-15T18:01:45;39.10;;;25.70;;
3791;SDS011;1911;53.768;11.474;2022-10-15T18:11:34;37.90;;;24.20;;
3791;SDS011;1911;53.768;11.474;2022-10-15T19:39:07;19.53;;;12.63;;
3791;SDS011;1911;53.768;11.474;2022-10-15T19:41:37;18.40;;;12.97;;